Thompson, Pennsylvania
Current Conditions -  °F | °C
As of 2:53 PM on Friday 24 Oct 2014 (Local Time) from KBGM Reporting Station
Clear Clear  
Wind Chill: 58°   Ceiling: Unl
Heat Index: 58°   Visibility: 10mi
Dew Point: 40°   Wind: 14mph
Humidity: 51%   Direction: 320°NW
Pressure: 29.87"   Gusts: 23mph
Location:  41.86°N, 75.51°W
Report Text: KBGM 241853Z 32012G20KT 10SM CLR 14/04 A2987 RMK AO2 SLP116 T01440044
Loading
Personal Weather Stations






























Interactive Weather Map
Tropical Storm Tracking
New forecast layout! Learn more

10-Day Weather Forecast

Advertisements
Track Severe Weather on mobile